createdAt,value
2023-05-19T00:00:11.980Z,93937.28
2023-05-19T00:02:41.092Z,93950.31
2023-05-19T00:05:11.767Z,93954.16
2023-05-19T00:07:41.547Z,93945.66
2023-05-19T00:10:10.709Z,93944.44
2023-05-19T00:12:40.347Z,93945.31
2023-05-19T00:15:09.844Z,93949.34
2023-05-19T00:17:39.791Z,93920.50
2023-05-19T00:20:09.747Z,93913.56
2023-05-19T00:22:38.447Z,93921.28
2023-05-19T00:25:07.710Z,93913.06
2023-05-19T00:27:36.372Z,93928.16
2023-05-19T00:30:04.644Z,93931.09
2023-05-19T00:32:32.956Z,93931.56
2023-05-19T00:35:01.172Z,93934.00
2023-05-19T00:37:29.735Z,93927.53
2023-05-19T00:39:58.671Z,93905.31
2023-05-19T00:42:27.303Z,93902.72
2023-05-19T00:44:55.907Z,93915.13
2023-05-19T00:47:23.958Z,93915.59
2023-05-19T00:49:52.097Z,93895.28
2023-05-19T00:52:20.740Z,93914.03
2023-05-19T00:54:50.739Z,93916.22
2023-05-19T00:57:19.848Z,93914.47
2023-05-19T00:59:50.106Z,93904.41
2023-05-19T01:02:19.432Z,93903.91
2023-05-19T01:04:48.474Z,93902.97
2023-05-19T01:07:17.414Z,93892.91
2023-05-19T01:09:48.705Z,93899.13
2023-05-19T01:12:17.339Z,93889.63
2023-05-19T01:14:46.336Z,93902.66
2023-05-19T01:17:15.411Z,93899.50
2023-05-19T01:19:48.193Z,93891.81
2023-05-19T01:22:25.425Z,93892.25
2023-05-19T01:25:14.540Z,93892.56
2023-05-19T01:28:07.669Z,93887.44
2023-05-19T01:30:41.541Z,93884.97
2023-05-19T01:33:11.379Z,93888.22
2023-05-19T01:35:40.636Z,93881.56
2023-05-19T01:38:12.776Z,93876.59
2023-05-19T01:40:42.107Z,93885.41
2023-05-19T01:43:15.063Z,93883.81
2023-05-19T01:45:43.761Z,93875.31
2023-05-19T01:48:13.326Z,93876.53
2023-05-19T01:50:41.913Z,93883.97
2023-05-19T01:53:10.238Z,93876.38
2023-05-19T01:55:44.934Z,93878.19
2023-05-19T01:58:24.267Z,93882.47
2023-05-19T02:00:55.885Z,93888.81
2023-05-19T02:03:36.375Z,93874.25
2023-05-19T02:06:25.278Z,93883.19
2023-05-19T02:09:02.555Z,93887.75
2023-05-19T02:11:30.827Z,93876.59
2023-05-19T02:14:02.542Z,93882.94
2023-05-19T02:16:31.028Z,93885.84
2023-05-19T02:19:00.178Z,93883.13
2023-05-19T02:21:28.483Z,93879.06
2023-05-19T02:23:56.806Z,93875.31
2023-05-19T02:26:25.041Z,93874.91
2023-05-19T02:28:53.158Z,93879.03
2023-05-19T02:31:21.536Z,93878.81
2023-05-19T02:33:49.216Z,93874.53
2023-05-19T02:36:17.624Z,93873.09
2023-05-19T02:38:45.529Z,93875.94
2023-05-19T02:41:13.820Z,93872.94
2023-05-19T02:43:42.154Z,93870.31
2023-05-19T02:46:10.379Z,93883.50
2023-05-19T02:48:38.556Z,93878.25
2023-05-19T02:51:06.974Z,93865.41
2023-05-19T02:53:35.300Z,93863.47
2023-05-19T02:56:03.622Z,93870.59
2023-05-19T02:58:32.266Z,93866.63
2023-05-19T03:01:00.603Z,93870.41
2023-05-19T03:03:30.242Z,93866.16
2023-05-19T03:05:58.901Z,93868.41
2023-05-19T03:08:26.798Z,93872.41
2023-05-19T03:10:56.053Z,93864.72
2023-05-19T03:13:24.407Z,93867.31
2023-05-19T03:15:53.805Z,93864.69
2023-05-19T03:18:22.825Z,93869.47
2023-05-19T03:20:51.334Z,93865.47
2023-05-19T03:23:19.158Z,93860.31
2023-05-19T03:25:47.250Z,93864.59
2023-05-19T03:28:15.160Z,93861.97
2023-05-19T03:30:43.297Z,93853.03
2023-05-19T03:33:11.842Z,93858.38
2023-05-19T03:35:39.890Z,93860.03
2023-05-19T03:38:08.172Z,93853.91
2023-05-19T03:40:36.530Z,93843.22
2023-05-19T03:43:04.851Z,93843.63
2023-05-19T03:45:33.127Z,93836.13
2023-05-19T03:48:01.572Z,93837.31
2023-05-19T03:50:30.226Z,93834.00
2023-05-19T03:52:58.720Z,93837.00
2023-05-19T03:55:27.121Z,93840.41
2023-05-19T03:57:55.487Z,93831.38
2023-05-19T04:00:24.395Z,93829.13
2023-05-19T04:02:53.143Z,93835.44
2023-05-19T04:05:22.254Z,93837.06
2023-05-19T04:07:50.603Z,93833.47
2023-05-19T04:10:18.905Z,93829.28
2023-05-19T04:12:47.532Z,93826.38
2023-05-19T04:15:16.864Z,93827.91
2023-05-19T04:17:44.803Z,93826.81
2023-05-19T04:20:13.022Z,93833.59
2023-05-19T04:22:41.336Z,93827.66
2023-05-19T04:25:11.204Z,93837.41
2023-05-19T04:27:40.552Z,93834.19
2023-05-19T04:30:09.102Z,93830.50
2023-05-19T04:32:38.995Z,93834.19
2023-05-19T04:35:07.711Z,93829.22
2023-05-19T04:37:38.959Z,93836.88
2023-05-19T04:40:07.687Z,93837.09
2023-05-19T04:42:35.947Z,93833.13
2023-05-19T04:45:06.794Z,93836.47
2023-05-19T04:47:38.138Z,93831.88
2023-05-19T04:50:07.295Z,93826.13
2023-05-19T04:52:35.571Z,93828.84
2023-05-19T04:55:03.880Z,93822.41
2023-05-19T04:57:33.710Z,93833.06
2023-05-19T05:00:02.723Z,93819.06
2023-05-19T05:02:30.862Z,93816.31
2023-05-19T05:04:59.042Z,93825.78
2023-05-19T05:07:27.009Z,93817.31
2023-05-19T05:09:55.288Z,93813.41
2023-05-19T05:12:23.747Z,93821.88
2023-05-19T05:14:52.624Z,93812.19
2023-05-19T05:17:21.848Z,93805.13
2023-05-19T05:19:50.083Z,93806.47
2023-05-19T05:22:18.492Z,93811.00
2023-05-19T05:24:47.483Z,93809.59
2023-05-19T05:27:15.945Z,93807.25
2023-05-19T05:29:44.302Z,93810.16
2023-05-19T05:32:12.666Z,93807.88
2023-05-19T05:34:42.381Z,93813.31
2023-05-19T05:37:10.851Z,93804.91
2023-05-19T05:39:39.484Z,93799.03
2023-05-19T05:42:07.472Z,93795.66
2023-05-19T05:44:37.086Z,93794.38
2023-05-19T05:47:05.564Z,93795.50
2023-05-19T05:49:33.938Z,93793.19
2023-05-19T05:52:06.377Z,93798.75
2023-05-19T05:54:35.162Z,93795.94
2023-05-19T05:57:03.592Z,93800.22
2023-05-19T05:59:31.997Z,93791.66
2023-05-19T06:02:00.681Z,93798.59
2023-05-19T06:04:29.133Z,93796.59
2023-05-19T06:07:02.402Z,93797.72
2023-05-19T06:09:35.170Z,93802.72
2023-05-19T06:12:03.367Z,93768.47
2023-05-19T06:14:31.724Z,93785.88
2023-05-19T06:16:59.847Z,93791.19
2023-05-19T06:19:28.156Z,93784.91
2023-05-19T06:21:55.960Z,93787.09
2023-05-19T06:24:24.070Z,93784.19
2023-05-19T06:26:52.111Z,93781.91
2023-05-19T06:29:20.251Z,93786.16
2023-05-19T06:31:48.757Z,93790.38
2023-05-19T06:34:18.780Z,93791.25
2023-05-19T06:36:47.145Z,93793.09
2023-05-19T06:39:15.295Z,93800.72
2023-05-19T06:41:43.614Z,93803.59
2023-05-19T06:44:12.779Z,93801.72
2023-05-19T06:46:40.773Z,93803.91
2023-05-19T06:49:09.095Z,93806.28
2023-05-19T06:51:38.335Z,93811.31
2023-05-19T06:54:06.238Z,93806.13
2023-05-19T06:56:34.545Z,93806.13
2023-05-19T06:59:02.878Z,93803.56
2023-05-19T07:01:31.335Z,93804.84
2023-05-19T07:03:59.554Z,93808.19
2023-05-19T07:06:28.240Z,93811.69
2023-05-19T07:08:56.554Z,93803.63
2023-05-19T07:11:25.390Z,93803.59
2023-05-19T07:13:53.753Z,93793.47
2023-05-19T07:16:22.222Z,93794.28
2023-05-19T07:18:50.623Z,93788.53
2023-05-19T07:21:19.049Z,93784.63
2023-05-19T07:23:47.413Z,93784.56
2023-05-19T07:26:15.732Z,93775.47
2023-05-19T07:28:44.911Z,93763.78
2023-05-19T07:31:13.248Z,93767.44
2023-05-19T07:33:41.650Z,93776.84
2023-05-19T07:36:10.092Z,93773.19
2023-05-19T07:38:38.458Z,93760.16
2023-05-19T07:41:06.809Z,93760.66
2023-05-19T07:43:35.573Z,93760.69
2023-05-19T07:46:03.990Z,93768.03
2023-05-19T07:48:32.382Z,93756.84
2023-05-19T07:51:00.291Z,93751.63
2023-05-19T07:53:30.355Z,93756.84
2023-05-19T07:55:58.943Z,93748.28
2023-05-19T07:58:28.375Z,93751.38
2023-05-19T08:00:59.038Z,93741.84
2023-05-19T08:03:28.150Z,93749.59
2023-05-19T08:05:56.863Z,93747.53
2023-05-19T08:08:25.323Z,93734.53
2023-05-19T08:10:53.683Z,93739.50
2023-05-19T08:13:22.053Z,93724.72
2023-05-19T08:15:50.477Z,93733.06
2023-05-19T08:18:18.909Z,93731.78
2023-05-19T08:20:47.368Z,93732.06
2023-05-19T08:23:15.842Z,93729.47
2023-05-19T08:25:44.151Z,93728.75
2023-05-19T08:28:12.654Z,93723.00
2023-05-19T08:30:41.936Z,93721.47
2023-05-19T08:33:09.808Z,93719.94
2023-05-19T08:35:38.135Z,93720.97
2023-05-19T08:38:06.471Z,93722.84
2023-05-19T08:40:35.283Z,93720.22
2023-05-19T08:43:03.325Z,93719.47
2023-05-19T08:45:32.177Z,93722.88
2023-05-19T08:48:00.679Z,93727.84
2023-05-19T08:50:32.155Z,93720.03
2023-05-19T08:53:02.914Z,93719.00
2023-05-19T08:55:42.595Z,93710.16
2023-05-19T08:58:11.523Z,93712.78
2023-05-19T09:00:40.607Z,93710.97
2023-05-19T09:03:18.133Z,93713.84
2023-05-19T09:05:51.532Z,93712.53
2023-05-19T09:08:19.835Z,93702.91
2023-05-19T09:10:47.817Z,93707.63
2023-05-19T09:13:16.184Z,93697.22
2023-05-19T09:15:46.034Z,93702.19
2023-05-19T09:18:14.873Z,93701.94
2023-05-19T09:20:44.832Z,93702.19
2023-05-19T09:23:17.580Z,93710.53
2023-05-19T09:25:49.758Z,93706.09
2023-05-19T09:28:28.198Z,93716.50
2023-05-19T09:31:03.119Z,93708.19
2023-05-19T09:33:32.431Z,93704.31
2023-05-19T09:36:01.996Z,93699.38
2023-05-19T09:38:30.888Z,93704.56
2023-05-19T09:40:59.303Z,93704.31
2023-05-19T09:43:31.287Z,93704.06
2023-05-19T09:46:05.492Z,93703.28
2023-05-19T09:48:34.254Z,93706.66
2023-05-19T09:51:03.726Z,93716.78
2023-05-19T09:53:33.061Z,93736.78
2023-05-19T09:56:03.346Z,93760.44
2023-05-19T09:58:38.763Z,93759.13
2023-05-19T10:01:08.034Z,93749.50
2023-05-19T10:03:36.445Z,93728.47
2023-05-19T10:06:06.489Z,93720.69
2023-05-19T10:08:35.686Z,93735.72
2023-05-19T10:11:04.831Z,93731.84
2023-05-19T10:13:33.589Z,93713.41
2023-05-19T10:16:02.336Z,93698.88
2023-05-19T10:18:30.924Z,93687.94
2023-05-19T10:20:59.264Z,93683.78
2023-05-19T10:23:29.109Z,93683.53
2023-05-19T10:25:58.800Z,93688.22
2023-05-19T10:28:29.576Z,93722.22
2023-05-19T10:31:00.377Z,93710.03
2023-05-19T10:33:38.565Z,93680.16
2023-05-19T10:36:10.813Z,93678.84
2023-05-19T10:38:46.473Z,93686.91
2023-05-19T10:41:33.403Z,93691.06
2023-05-19T10:44:11.063Z,93676.00
2023-05-19T10:46:41.468Z,93680.41
2023-05-19T10:49:10.170Z,93679.09
2023-05-19T10:51:38.685Z,93681.94
2023-05-19T10:54:15.426Z,93680.63
2023-05-19T10:56:47.220Z,93686.34
2023-05-19T10:59:36.485Z,93683.22
2023-05-19T11:02:08.864Z,93676.19
2023-05-19T11:04:52.229Z,93674.34
2023-05-19T11:07:21.803Z,93672.28
2023-05-19T11:09:56.042Z,93676.44
2023-05-19T11:12:25.385Z,93672.00
2023-05-19T11:14:55.906Z,93666.03
2023-05-19T11:17:27.301Z,93656.69
2023-05-19T11:19:56.638Z,93669.38
2023-05-19T11:22:26.435Z,93661.34
2023-05-19T11:24:58.152Z,93661.63
2023-05-19T11:27:32.727Z,93666.53
2023-05-19T11:30:06.866Z,93662.09
2023-05-19T11:32:36.348Z,93662.63
2023-05-19T11:35:04.382Z,93653.03
2023-05-19T11:37:36.370Z,93656.41
2023-05-19T11:40:07.043Z,93658.47
2023-05-19T11:42:38.262Z,93660.53
2023-05-19T11:45:06.897Z,93669.09
2023-05-19T11:47:45.895Z,93662.38
2023-05-19T11:50:21.545Z,93666.53
2023-05-19T11:52:49.917Z,93656.91
2023-05-19T11:55:18.746Z,93672.72
2023-05-19T11:58:05.446Z,93671.41
2023-05-19T12:00:40.767Z,93668.31
2023-05-19T12:03:09.968Z,93672.72
2023-05-19T12:05:42.959Z,93674.53
2023-05-19T12:08:12.810Z,93676.91
2023-05-19T12:10:42.739Z,93668.84
2023-05-19T12:13:11.266Z,93668.88
2023-05-19T12:15:40.843Z,93663.94
2023-05-19T12:18:09.626Z,93664.22
2023-05-19T12:20:38.739Z,93666.03
2023-05-19T12:23:07.224Z,93670.69
2023-05-19T12:25:35.761Z,93676.91
2023-05-19T12:28:06.623Z,93671.50
2023-05-19T12:30:36.145Z,93675.63
2023-05-19T12:33:04.731Z,93686.53
2023-05-19T12:35:37.264Z,93684.19
2023-05-19T12:38:07.743Z,93681.09
2023-05-19T12:40:36.900Z,93680.84
2023-05-19T12:43:05.593Z,93673.84
2023-05-19T12:45:38.329Z,93665.53
2023-05-19T12:48:07.893Z,93659.88
2023-05-19T12:50:36.439Z,93659.88
2023-05-19T12:53:05.318Z,93665.06
2023-05-19T12:55:38.345Z,93672.34
2023-05-19T12:58:08.291Z,93673.91
2023-05-19T13:00:41.942Z,93674.16
2023-05-19T13:03:17.518Z,93670.03
2023-05-19T13:05:50.304Z,93674.19
2023-05-19T13:08:19.483Z,93680.66
2023-05-19T13:10:48.595Z,93667.94
2023-05-19T13:13:17.260Z,93660.94
2023-05-19T13:15:46.813Z,93664.31
2023-05-19T13:18:15.234Z,93667.19
2023-05-19T13:20:44.165Z,93673.16
2023-05-19T13:23:12.385Z,93671.84
2023-05-19T13:25:41.424Z,93671.06
2023-05-19T13:28:09.785Z,93669.75
2023-05-19T13:30:39.610Z,93660.41
2023-05-19T13:33:08.314Z,93674.16
2023-05-19T13:35:39.439Z,93658.31
2023-05-19T13:38:08.399Z,93652.34
2023-05-19T13:40:36.801Z,93650.50
2023-05-19T13:43:05.368Z,93642.72
2023-05-19T13:45:33.729Z,93647.09
2023-05-19T13:48:02.203Z,93647.88
2023-05-19T13:50:30.577Z,93651.25
2023-05-19T13:52:59.006Z,93653.81
2023-05-19T13:55:28.945Z,93652.75
2023-05-19T13:57:56.825Z,93654.53
2023-05-19T14:00:25.027Z,93650.59
2023-05-19T14:02:54.267Z,93650.88
2023-05-19T14:05:22.620Z,93653.22
2023-05-19T14:07:50.765Z,93650.88
2023-05-19T14:10:19.213Z,93648.22
2023-05-19T14:13:14.098Z,93650.59
2023-05-19T14:15:38.926Z,93652.13
2023-05-19T14:18:07.538Z,93645.59
2023-05-19T14:20:36.288Z,93639.81
2023-05-19T14:23:04.493Z,93641.34
2023-05-19T14:25:32.997Z,93639.94
2023-05-19T14:28:01.451Z,93640.44
2023-05-19T14:30:30.303Z,93625.38
2023-05-19T14:32:58.586Z,93637.81
2023-05-19T14:35:27.379Z,93628.59
2023-05-19T14:37:56.545Z,93619.16
2023-05-19T14:40:24.672Z,93620.13
2023-05-19T14:42:53.116Z,93627.34
2023-05-19T14:45:21.334Z,93621.47
2023-05-19T14:47:49.305Z,93618.81
2023-05-19T14:50:18.646Z,93623.53
2023-05-19T14:52:46.624Z,93624.84
2023-05-19T14:55:15.879Z,93616.22
2023-05-19T14:57:45.211Z,93608.56
2023-05-19T15:00:14.083Z,93616.09
2023-05-19T15:02:42.315Z,93621.44
2023-05-19T15:05:10.968Z,93616.19
2023-05-19T15:07:39.230Z,93614.03
2023-05-19T15:10:07.886Z,93609.59
2023-05-19T15:12:36.275Z,93623.44
2023-05-19T15:15:04.924Z,93631.16
2023-05-19T15:17:32.875Z,93641.38
2023-05-19T15:20:00.900Z,93630.09
2023-05-19T15:22:29.272Z,93629.00
2023-05-19T15:24:57.651Z,93632.06
2023-05-19T15:27:25.652Z,93634.91
2023-05-19T15:29:53.807Z,93625.94
2023-05-19T15:32:23.143Z,93629.06
2023-05-19T15:34:51.679Z,93627.13
2023-05-19T15:37:19.552Z,93624.63
2023-05-19T15:39:47.906Z,93620.88
2023-05-19T15:42:16.060Z,93622.94
2023-05-19T15:44:47.159Z,93622.88
2023-05-19T15:47:15.543Z,93634.41
2023-05-19T15:49:43.533Z,93640.00
2023-05-19T15:52:11.709Z,93624.41
2023-05-19T15:54:40.010Z,93631.16
2023-05-19T15:57:07.821Z,93626.25
2023-05-19T15:59:36.296Z,93623.75
2023-05-19T16:02:05.259Z,93621.94
2023-05-19T16:04:34.640Z,93625.50
2023-05-19T16:07:02.846Z,93621.88
2023-05-19T16:09:31.179Z,93618.94
2023-05-19T16:12:00.461Z,93612.75
2023-05-19T16:14:32.417Z,93610.09
2023-05-19T16:17:01.077Z,93615.78
2023-05-19T16:19:30.493Z,93603.75
2023-05-19T16:21:58.525Z,93607.63
2023-05-19T16:24:26.932Z,93598.16
2023-05-19T16:26:54.887Z,93597.91
2023-05-19T16:29:23.211Z,93601.13
2023-05-19T16:31:51.193Z,93591.66
2023-05-19T16:34:19.530Z,93591.22
2023-05-19T16:36:47.164Z,93591.84
2023-05-19T16:39:15.740Z,93590.44
2023-05-19T16:41:43.883Z,93595.78
2023-05-19T16:44:16.093Z,93600.28
2023-05-19T16:46:45.216Z,93590.19
2023-05-19T16:49:13.583Z,93590.19
2023-05-19T16:51:41.681Z,93583.25
2023-05-19T16:54:09.592Z,93579.50
2023-05-19T17:00:30.554Z,93566.00
2023-05-19T17:06:51.263Z,93583.28
2023-05-19T17:09:26.264Z,93570.25
2023-05-19T17:11:55.509Z,93572.81
2023-05-19T17:14:24.240Z,93563.19
2023-05-19T17:16:53.716Z,93572.88
2023-05-19T17:19:22.418Z,93567.16
2023-05-19T17:21:51.159Z,93566.88
2023-05-19T17:24:19.700Z,93562.44
2023-05-19T17:26:48.240Z,93559.88
2023-05-19T17:29:16.623Z,93555.81
2023-05-19T17:31:45.326Z,93557.66
2023-05-19T17:34:13.956Z,93560.53
2023-05-19T17:36:42.409Z,93551.31
2023-05-19T17:39:10.937Z,93550.44
2023-05-19T17:41:39.720Z,93552.97
2023-05-19T17:44:08.596Z,93548.94
2023-05-19T17:46:37.488Z,93544.94
2023-05-19T17:49:06.311Z,93552.53
2023-05-19T17:51:35.242Z,93553.56
2023-05-19T17:54:04.075Z,93555.03
2023-05-19T17:56:35.512Z,93545.38
2023-05-19T17:59:04.411Z,93543.41
2023-05-19T18:01:33.645Z,93543.63
2023-05-19T18:04:02.807Z,93543.00
2023-05-19T18:06:33.181Z,93539.00
2023-05-19T18:09:04.963Z,93538.97
2023-05-19T18:11:33.615Z,93534.47
2023-05-19T18:14:02.211Z,93544.81
2023-05-19T18:16:30.900Z,93528.19
2023-05-19T18:18:59.607Z,93527.53
2023-05-19T18:21:28.197Z,93530.16
2023-05-19T18:23:56.795Z,93523.56
2023-05-19T18:26:25.177Z,93522.00
2023-05-19T18:28:53.716Z,93524.50
2023-05-19T18:31:22.334Z,93526.59
2023-05-19T18:33:51.141Z,93516.22
2023-05-19T18:36:20.459Z,93518.63
2023-05-19T18:38:49.244Z,93522.44
2023-05-19T18:41:17.821Z,93517.56
2023-05-19T18:43:46.400Z,93520.38
2023-05-19T18:46:14.957Z,93511.44
2023-05-19T18:48:43.605Z,93512.00
2023-05-19T18:51:12.192Z,93512.75
2023-05-19T18:53:40.699Z,93506.75
2023-05-19T18:56:09.551Z,93509.63
2023-05-19T18:58:38.123Z,93497.47
2023-05-19T19:01:06.748Z,93501.19
2023-05-19T19:03:35.517Z,93486.16
2023-05-19T19:06:04.087Z,93482.63
2023-05-19T19:08:32.939Z,93494.44
2023-05-19T19:11:02.284Z,93487.19
2023-05-19T19:13:30.846Z,93488.66
2023-05-19T19:15:59.454Z,93489.44
2023-05-19T19:18:28.238Z,93489.13
2023-05-19T19:21:00.991Z,93483.50
2023-05-19T19:23:29.664Z,93495.31
2023-05-19T19:25:57.693Z,93484.50
2023-05-19T19:28:26.418Z,93481.75
2023-05-19T19:30:55.028Z,93474.91
2023-05-19T19:33:23.707Z,93474.94
2023-05-19T19:35:52.290Z,93484.75
2023-05-19T19:38:20.889Z,93480.63
2023-05-19T19:40:49.582Z,93489.44
2023-05-19T19:43:18.179Z,93477.41
2023-05-19T19:45:46.397Z,93484.28
2023-05-19T19:48:14.932Z,93479.66
2023-05-19T19:50:43.570Z,93472.50
2023-05-19T19:53:12.180Z,93482.03
2023-05-19T19:55:41.263Z,93484.88
2023-05-19T19:58:09.819Z,93472.78
2023-05-19T20:00:38.409Z,93476.47
2023-05-19T20:03:07.024Z,93470.63
2023-05-19T20:05:35.982Z,93465.50
2023-05-19T20:08:04.980Z,93480.19
2023-05-19T20:10:33.778Z,93477.66
2023-05-19T20:13:02.566Z,93476.06
2023-05-19T20:15:31.192Z,93478.19
2023-05-19T20:17:59.809Z,93470.19
2023-05-19T20:20:28.231Z,93475.75
2023-05-19T20:22:56.780Z,93477.81
2023-05-19T20:25:25.504Z,93486.00
2023-05-19T20:27:54.111Z,93484.31
2023-05-19T20:30:22.715Z,93485.84
2023-05-19T20:32:51.453Z,93490.78
2023-05-19T20:35:20.202Z,93500.53
2023-05-19T20:37:49.391Z,93489.31
2023-05-19T20:40:18.023Z,93492.34
2023-05-19T20:42:47.512Z,93492.47
2023-05-19T20:45:16.139Z,93480.03
2023-05-19T20:47:44.987Z,93491.31
2023-05-19T20:50:13.670Z,93485.75
2023-05-19T20:52:42.615Z,93484.41
2023-05-19T20:55:11.287Z,93489.84
2023-05-19T20:57:39.943Z,93497.97
2023-05-19T21:00:09.079Z,93500.34
2023-05-19T21:02:48.031Z,93488.47
2023-05-19T21:05:30.216Z,93496.44
2023-05-19T21:08:13.943Z,93485.19
2023-05-19T21:13:30.812Z,93486.91
2023-05-19T21:16:11.598Z,93483.13
2023-05-19T21:18:41.083Z,93472.28
2023-05-19T21:21:09.533Z,93466.16
2023-05-19T21:23:38.018Z,93468.41
2023-05-19T21:26:07.747Z,93474.03
2023-05-19T21:28:36.387Z,93472.44
2023-05-19T21:31:06.577Z,93475.91
2023-05-19T21:33:35.295Z,93480.03
2023-05-19T21:36:03.846Z,93472.56
2023-05-19T21:38:32.005Z,93477.84
2023-05-19T21:41:00.761Z,93475.78
2023-05-19T21:43:29.316Z,93482.25
2023-05-19T21:45:57.661Z,93490.38
2023-05-19T21:48:26.430Z,93494.25
2023-05-19T21:50:56.238Z,93482.44
2023-05-19T21:53:24.938Z,93495.38
2023-05-19T21:55:53.787Z,93488.66
2023-05-19T21:58:22.382Z,93493.53
2023-05-19T22:00:52.282Z,93484.94
2023-05-19T22:03:20.593Z,93485.72
2023-05-19T22:05:56.816Z,93490.00
2023-05-19T22:08:25.898Z,93489.56
2023-05-19T22:10:54.575Z,93495.91
2023-05-19T22:13:23.202Z,93493.06
2023-05-19T22:15:52.107Z,93488.53
2023-05-19T22:18:20.656Z,93486.41
2023-05-19T22:20:49.152Z,93486.06
2023-05-19T22:23:17.771Z,93481.53
2023-05-19T22:25:46.424Z,93477.88
2023-05-19T22:28:14.892Z,93479.13
2023-05-19T22:30:43.420Z,93473.31
2023-05-19T22:33:14.273Z,93480.81
2023-05-19T22:35:43.859Z,93482.03
2023-05-19T22:38:13.073Z,93482.75
2023-05-19T22:40:41.761Z,93479.75
2023-05-19T22:43:10.407Z,93478.63
2023-05-19T22:45:39.182Z,93484.41
2023-05-19T22:48:07.929Z,93485.66
2023-05-19T22:50:36.733Z,93478.28
2023-05-19T22:53:05.248Z,93475.25
2023-05-19T22:55:33.965Z,93475.72
2023-05-19T22:58:02.762Z,93478.56
2023-05-19T23:00:31.343Z,93482.66
2023-05-19T23:03:00.434Z,93478.00
2023-05-19T23:05:29.053Z,93477.69
2023-05-19T23:07:57.924Z,93475.53
2023-05-19T23:10:26.275Z,93477.34
2023-05-19T23:12:54.906Z,93472.91
2023-05-19T23:15:23.422Z,93476.38
2023-05-19T23:17:52.096Z,93468.03
2023-05-19T23:20:20.818Z,93469.06
2023-05-19T23:22:49.414Z,93473.78
2023-05-19T23:25:18.005Z,93477.38
2023-05-19T23:27:47.861Z,93480.63
2023-05-19T23:30:16.421Z,93466.59
2023-05-19T23:32:44.902Z,93481.00
2023-05-19T23:35:15.086Z,93476.56
2023-05-19T23:37:43.797Z,93482.25
2023-05-19T23:40:12.924Z,93477.91
2023-05-19T23:42:41.536Z,93482.75
2023-05-19T23:45:10.522Z,93485.16
2023-05-19T23:47:39.378Z,93483.38
2023-05-19T23:50:08.558Z,93488.31
2023-05-19T23:52:37.221Z,93492.81
2023-05-19T23:55:07.172Z,93487.53
2023-05-19T23:57:35.798Z,93497.34
